Wetterdaten: Montag, 14.06.2010
Datum Zeit Temp. A. Feuchte A. Luftdruck Regen Wind Richtung Richtung Sonnenschein UV Solar Windben
14.06.2010 00:00 10,7 C 85 % 1011,3 hPa 0,0 mm 0,0 km/h (0 Bft) N-NO 22 0 min 0 UV-I 0 W/m 1,6 km/h (1 Bft)
14.06.2010 00:10 10,6 C 84 % 1011,3 hPa 0,0 mm 0,0 km/h (0 Bft) N-NO 22 0 min 0 UV-I 0 W/m 3,2 km/h (1 Bft)
14.06.2010 00:20 10,4 C 84 % 1011,5 hPa 0,0 mm 0,0 km/h (0 Bft) N-NO 22 0 min 0 UV-I 0 W/m 3,2 km/h (1 Bft)
14.06.2010 00:30 10,2 C 85 % 1011,6 hPa 0,0 mm 0,0 km/h (0 Bft) N 0 0 min 0 UV-I 0 W/m 0,0 km/h (0 Bft)
14.06.2010 00:40 10,1 C 86 % 1011,6 hPa 0,0 mm 0,0 km/h (0 Bft) N-NO 22 0 min 0 UV-I 0 W/m 1,6 km/h (1 Bft)
14.06.2010 00:50 9,9 C 86 % 1011,7 hPa 0,0 mm 0,0 km/h (0 Bft) N-NO 22 0 min 0 UV-I 0 W/m 1,6 km/h (1 Bft)
14.06.2010 01:00 9,7 C 86 % 1011,8 hPa 0,0 mm 0,0 km/h (0 Bft) N 0 0 min 0 UV-I 0 W/m 0,0 km/h (0 Bft)
14.06.2010 01:10 9,6 C 87 % 1011,8 hPa 0,0 mm 0,0 km/h (0 Bft) N-NO 22 0 min 0 UV-I 0 W/m 1,6 km/h (1 Bft)
14.06.2010 01:20 9,5 C 87 % 1011,9 hPa 0,0 mm 0,0 km/h (0 Bft) N-NO 22 0 min 0 UV-I 0 W/m 1,6 km/h (1 Bft)
14.06.2010 01:30 9,4 C 87 % 1012,0 hPa 0,0 mm 0,0 km/h (0 Bft) N-NO 22 0 min 0 UV-I 0 W/m 1,6 km/h (1 Bft)
14.06.2010 01:40 9,4 C 87 % 1012,1 hPa 0,0 mm 0,0 km/h (0 Bft) N-NO 22 0 min 0 UV-I 0 W/m 1,6 km/h (1 Bft)
14.06.2010 01:50 9,3 C 88 % 1012,1 hPa 0,0 mm 0,0 km/h (0 Bft) N-NO 22 0 min 0 UV-I 0 W/m 3,2 km/h (1 Bft)
14.06.2010 02:00 9,3 C 87 % 1012,2 hPa 0,0 mm 0,0 km/h (0 Bft) N-NO 22 0 min 0 UV-I 0 W/m 4,8 km/h (1 Bft)
14.06.2010 02:10 9,3 C 87 % 1012,3 hPa 0,0 mm 0,0 km/h (0 Bft) N-NO 22 0 min 0 UV-I 0 W/m 3,2 km/h (1 Bft)
14.06.2010 02:20 9,2 C 87 % 1012,3 hPa 0,0 mm 0,0 km/h (0 Bft) N-NO 22 0 min 0 UV-I 0 W/m 1,6 km/h (1 Bft)
14.06.2010 02:30 9,0 C 87 % 1012,5 hPa 0,0 mm 0,0 km/h (0 Bft) N-NO 22 0 min 0 UV-I 0 W/m 1,6 km/h (1 Bft)
14.06.2010 02:40 8,9 C 87 % 1012,4 hPa 0,0 mm 0,0 km/h (0 Bft) N 0 0 min 0 UV-I 0 W/m 0,0 km/h (0 Bft)
14.06.2010 02:50 8,9 C 87 % 1012,5 hPa 0,0 mm 0,0 km/h (0 Bft) N 0 0 min 0 UV-I 0 W/m 0,0 km/h (0 Bft)
14.06.2010 03:00 8,9 C 87 % 1012,6 hPa 0,0 mm 0,0 km/h (0 Bft) N 0 0 min 0 UV-I 0 W/m 0,0 km/h (0 Bft)
14.06.2010 03:10 8,9 C 88 % 1012,7 hPa 0,0 mm 0,0 km/h (0 Bft) N-NO 22 0 min 0 UV-I 0 W/m 1,6 km/h (1 Bft)
14.06.2010 03:20 9,2 C 88 % 1012,8 hPa 0,0 mm 0,0 km/h (0 Bft) N-NO 22 0 min 0 UV-I 0 W/m 1,6 km/h (1 Bft)
14.06.2010 03:30 9,4 C 88 % 1012,8 hPa 0,0 mm 0,0 km/h (0 Bft) N 0 0 min 0 UV-I 0 W/m 0,0 km/h (0 Bft)
14.06.2010 03:40 9,3 C 88 % 1012,9 hPa 0,0 mm 0,0 km/h (0 Bft) N 0 0 min 0 UV-I 0 W/m 0,0 km/h (0 Bft)
14.06.2010 03:50 9,2 C 88 % 1013,0 hPa 0,0 mm 0,0 km/h (0 Bft) N 0 0 min 0 UV-I 0 W/m 0,0 km/h (0 Bft)
14.06.2010 04:00 9,1 C 88 % 1013,1 hPa 0,0 mm 0,0 km/h (0 Bft) N-NO 22 0 min 0 UV-I 0 W/m 1,6 km/h (1 Bft)
14.06.2010 04:10 8,9 C 88 % 1013,1 hPa 0,0 mm 0,0 km/h (0 Bft) N-NO 22 0 min 0 UV-I 0 W/m 1,6 km/h (1 Bft)
14.06.2010 04:20 8,7 C 88 % 1013,2 hPa 0,0 mm 0,0 km/h (0 Bft) N 0 0 min 0 UV-I 0 W/m 0,0 km/h (0 Bft)
14.06.2010 04:30 8,5 C 88 % 1013,2 hPa 0,0 mm 0,0 km/h (0 Bft) N-NO 22 0 min 0 UV-I 0 W/m 1,6 km/h (1 Bft)
14.06.2010 04:40 8,4 C 88 % 1013,3 hPa 0,0 mm 0,0 km/h (0 Bft) N-NO 22 0 min 0 UV-I 0 W/m 1,6 km/h (1 Bft)
14.06.2010 04:50 8,3 C 89 % 1013,4 hPa 0,0 mm 0,0 km/h (0 Bft) N 0 0 min 0 UV-I 0 W/m 0,0 km/h (0 Bft)
14.06.2010 05:00 8,1 C 89 % 1013,5 hPa 0,0 mm 0,0 km/h (0 Bft) N 0 0 min 0 UV-I 0 W/m 0,0 km/h (0 Bft)
14.06.2010 05:10 8,1 C 89 % 1013,5 hPa 0,0 mm 0,0 km/h (0 Bft) N-NO 22 0 min 0 UV-I 0 W/m 1,6 km/h (1 Bft)
14.06.2010 05:20 8,1 C 90 % 1013,6 hPa 0,0 mm 0,0 km/h (0 Bft) N-NO 22 0 min 0 UV-I 7 W/m 1,6 km/h (1 Bft)
14.06.2010 05:30 8,2 C 89 % 1013,7 hPa 0,0 mm 0,0 km/h (0 Bft) N 0 0 min 0 UV-I 11 W/m 0,0 km/h (0 Bft)
14.06.2010 05:40 8,1 C 89 % 1013,8 hPa 0,0 mm 0,0 km/h (0 Bft) N 0 0 min 0 UV-I 14 W/m 0,0 km/h (0 Bft)
14.06.2010 05:50 8,2 C 90 % 1013,9 hPa 0,0 mm 0,0 km/h (0 Bft) N 0 0 min 0 UV-I 23 W/m 0,0 km/h (0 Bft)
14.06.2010 06:00 8,4 C 90 % 1014,0 hPa 0,0 mm 0,0 km/h (0 Bft) N 0 0 min 0 UV-I 30 W/m 0,0 km/h (0 Bft)
14.06.2010 06:10 8,8 C 90 % 1013,9 hPa 0,0 mm 0,0 km/h (0 Bft) N-NO 22 0 min 0 UV-I 39 W/m 1,6 km/h (1 Bft)
14.06.2010 06:20 9,2 C 90 % 1013,9 hPa 0,0 mm 0,0 km/h (0 Bft) N-NO 22 0 min 0 UV-I 44 W/m 1,6 km/h (1 Bft)
14.06.2010 06:30 9,4 C 89 % 1013,8 hPa 0,0 mm 0,0 km/h (0 Bft) N-NO 22 0 min 0 UV-I 60 W/m 1,6 km/h (1 Bft)
14.06.2010 06:40 9,8 C 89 % 1013,9 hPa 0,0 mm 0,0 km/h (0 Bft) N-NO 22 0 min 0 UV-I 72 W/m 3,2 km/h (1 Bft)
14.06.2010 06:50 10,2 C 88 % 1013,9 hPa 0,0 mm 0,0 km/h (0 Bft) N-NO 22 0 min 0 UV-I 86 W/m 1,6 km/h (1 Bft)
14.06.2010 07:00 10,6 C 87 % 1014,0 hPa 0,0 mm 0,0 km/h (0 Bft) N-NO 22 0 min 0 UV-I 91 W/m 1,6 km/h (1 Bft)
14.06.2010 07:10 10,9 C 85 % 1014,0 hPa 0,0 mm 0,0 km/h (0 Bft) N-NO 22 0 min 1 UV-I 105 W/m 4,8 km/h (1 Bft)
14.06.2010 07:20 11,4 C 84 % 1014,1 hPa 0,0 mm 0,0 km/h (0 Bft) N-NO 22 0 min 1 UV-I 121 W/m 4,8 km/h (1 Bft)
14.06.2010 07:30 11,8 C 83 % 1014,2 hPa 0,0 mm 0,0 km/h (0 Bft) N-NO 22 0 min 1 UV-I 148 W/m 3,2 km/h (1 Bft)
14.06.2010 07:40 12,2 C 81 % 1014,1 hPa 0,0 mm 1,6 km/h (1 Bft) NO 45 0 min 1 UV-I 156 W/m 6,4 km/h (2 Bft)
14.06.2010 07:50 12,6 C 80 % 1014,3 hPa 0,0 mm 1,6 km/h (1 Bft) NO 45 0 min 1 UV-I 151 W/m 4,8 km/h (1 Bft)
14.06.2010 08:00 12,8 C 79 % 1014,3 hPa 0,0 mm 0,2 km/h (0 Bft) NO 45 0 min 1 UV-I 146 W/m 1,6 km/h (1 Bft)
14.06.2010 08:10 13,0 C 79 % 1014,4 hPa 0,0 mm 0,0 km/h (0 Bft) NO 45 0 min 1 UV-I 178 W/m 4,8 km/h (1 Bft)
14.06.2010 08:20 13,3 C 79 % 1014,4 hPa 0,0 mm 0,0 km/h (0 Bft) NO 45 0 min 1 UV-I 211 W/m 1,6 km/h (1 Bft)
14.06.2010 08:30 13,6 C 78 % 1014,4 hPa 0,0 mm 0,0 km/h (0 Bft) NO 45 10 min 1 UV-I 260 W/m 3,2 km/h (1 Bft)
14.06.2010 08:40 13,8 C 77 % 1014,4 hPa 0,0 mm 0,0 km/h (0 Bft) NO 45 10 min 2 UV-I 450 W/m 3,2 km/h (1 Bft)
14.06.2010 08:50 14,5 C 75 % 1014,4 hPa 0,0 mm 1,6 km/h (1 Bft) NO 45 10 min 2 UV-I 471 W/m 4,8 km/h (1 Bft)
14.06.2010 09:00 15,4 C 73 % 1014,4 hPa 0,0 mm 1,6 km/h (1 Bft) O-NO 67 10 min 2 UV-I 494 W/m 11,3 km/h (2 Bft)
14.06.2010 09:10 16,2 C 66 % 1014,3 hPa 0,0 mm 4,8 km/h (1 Bft) O-SO 112 10 min 3 UV-I 520 W/m 14,5 km/h (3 Bft)
14.06.2010 09:20 16,7 C 62 % 1014,3 hPa 0,0 mm 4,8 km/h (1 Bft) O-SO 112 10 min 3 UV-I 547 W/m 14,5 km/h (3 Bft)
14.06.2010 09:30 16,8 C 64 % 1014,4 hPa 0,0 mm 3,2 km/h (1 Bft) O-SO 112 10 min 3 UV-I 570 W/m 11,3 km/h (2 Bft)
14.06.2010 09:40 17,2 C 61 % 1014,5 hPa 0,0 mm 3,2 km/h (1 Bft) O-SO 112 10 min 3 UV-I 599 W/m 12,9 km/h (3 Bft)
14.06.2010 09:50 17,7 C 59 % 1014,5 hPa 0,0 mm 4,8 km/h (1 Bft) O-SO 112 10 min 3 UV-I 621 W/m 12,9 km/h (3 Bft)
14.06.2010 10:00 18,1 C 59 % 1014,5 hPa 0,0 mm 4,8 km/h (1 Bft) O-SO 112 10 min 4 UV-I 647 W/m 14,5 km/h (3 Bft)
14.06.2010 10:10 18,3 C 57 % 1014,5 hPa 0,0 mm 3,2 km/h (1 Bft) O 90 10 min 4 UV-I 686 W/m 12,9 km/h (3 Bft)
14.06.2010 10:20 18,2 C 59 % 1014,6 hPa 0,0 mm 4,8 km/h (1 Bft) O 90 10 min 4 UV-I 758 W/m 12,9 km/h (3 Bft)
14.06.2010 10:30 18,6 C 56 % 1014,5 hPa 0,0 mm 4,8 km/h (1 Bft) O 90 10 min 5 UV-I 759 W/m 12,9 km/h (3 Bft)
14.06.2010 10:40 19,1 C 56 % 1014,4 hPa 0,0 mm 6,4 km/h (2 Bft) O 90 10 min 5 UV-I 772 W/m 12,9 km/h (3 Bft)
14.06.2010 10:50 19,2 C 56 % 1014,4 hPa 0,0 mm 4,8 km/h (1 Bft) O 90 10 min 5 UV-I 800 W/m 12,9 km/h (3 Bft)
14.06.2010 11:00 19,3 C 58 % 1014,5 hPa 0,0 mm 3,2 km/h (1 Bft) O-NO 67 10 min 5 UV-I 881 W/m 9,7 km/h (2 Bft)
14.06.2010 11:10 19,3 C 57 % 1014,5 hPa 0,0 mm 3,2 km/h (1 Bft) O 90 10 min 6 UV-I 893 W/m 11,3 km/h (2 Bft)
14.06.2010 11:20 19,4 C 55 % 1014,6 hPa 0,0 mm 4,8 km/h (1 Bft) O-NO 67 10 min 6 UV-I 879 W/m 12,9 km/h (3 Bft)
14.06.2010 11:30 19,8 C 56 % 1014,6 hPa 0,0 mm 3,2 km/h (1 Bft) O-NO 67 10 min 6 UV-I 884 W/m 9,7 km/h (2 Bft)
14.06.2010 11:40 19,5 C 55 % 1014,6 hPa 0,0 mm 3,2 km/h (1 Bft) NO 45 10 min 6 UV-I 951 W/m 11,3 km/h (2 Bft)
14.06.2010 11:50 19,7 C 56 % 1014,6 hPa 0,0 mm 4,8 km/h (1 Bft) O-NO 67 10 min 6 UV-I 896 W/m 11,3 km/h (2 Bft)
14.06.2010 12:00 19,9 C 55 % 1014,5 hPa 0,0 mm 3,2 km/h (1 Bft) O 90 10 min 7 UV-I 933 W/m 8,0 km/h (2 Bft)
14.06.2010 12:10 20,4 C 53 % 1014,5 hPa 0,0 mm 4,8 km/h (1 Bft) N 360 10 min 7 UV-I 919 W/m 11,3 km/h (2 Bft)
14.06.2010 12:20 20,7 C 52 % 1014,6 hPa 0,0 mm 3,2 km/h (1 Bft) O-SO 112 10 min 7 UV-I 914 W/m 8,0 km/h (2 Bft)
14.06.2010 12:30 21,1 C 51 % 1014,7 hPa 0,0 mm 4,8 km/h (1 Bft) O-NO 67 10 min 7 UV-I 949 W/m 14,5 km/h (3 Bft)
14.06.2010 12:40 20,7 C 49 % 1014,6 hPa 0,0 mm 3,2 km/h (1 Bft) N 360 10 min 7 UV-I 911 W/m 11,3 km/h (2 Bft)
14.06.2010 12:50 20,9 C 48 % 1014,6 hPa 0,0 mm 3,2 km/h (1 Bft) O 90 10 min 7 UV-I 919 W/m 11,3 km/h (2 Bft)
14.06.2010 13:00 21,3 C 49 % 1014,7 hPa 0,0 mm 1,6 km/h (1 Bft) O-SO 112 10 min 7 UV-I 947 W/m 9,7 km/h (2 Bft)
14.06.2010 13:10 21,1 C 51 % 1014,8 hPa 0,0 mm 3,2 km/h (1 Bft) O 90 10 min 7 UV-I 963 W/m 11,3 km/h (2 Bft)
14.06.2010 13:20 21,6 C 48 % 1014,8 hPa 0,0 mm 3,2 km/h (1 Bft) O 90 10 min 7 UV-I 997 W/m 11,3 km/h (2 Bft)
14.06.2010 13:30 21,3 C 50 % 1014,9 hPa 0,0 mm 1,6 km/h (1 Bft) O 90 10 min 7 UV-I 1067 W/m 6,4 km/h (2 Bft)
14.06.2010 13:40 22,3 C 46 % 1014,9 hPa 0,0 mm 3,2 km/h (1 Bft) O-SO 112 10 min 7 UV-I 1023 W/m 11,3 km/h (2 Bft)
14.06.2010 13:50 22,5 C 47 % 1015,0 hPa 0,0 mm 3,2 km/h (1 Bft) O 90 10 min 7 UV-I 1007 W/m 14,5 km/h (3 Bft)
14.06.2010 14:00 21,7 C 49 % 1014,9 hPa 0,0 mm 1,6 km/h (1 Bft) W-SW 247 10 min 7 UV-I 990 W/m 9,7 km/h (2 Bft)
14.06.2010 14:10 22,5 C 46 % 1015,0 hPa 0,0 mm 3,2 km/h (1 Bft) N-NO 22 10 min 7 UV-I 993 W/m 11,3 km/h (2 Bft)
14.06.2010 14:20 21,8 C 47 % 1015,0 hPa 0,0 mm 1,6 km/h (1 Bft) NO 45 10 min 7 UV-I 998 W/m 6,4 km/h (2 Bft)
14.06.2010 14:30 21,1 C 50 % 1015,1 hPa 0,0 mm 1,6 km/h (1 Bft) N 360 10 min 7 UV-I 1055 W/m 9,7 km/h (2 Bft)
14.06.2010 14:40 21,2 C 48 % 1015,1 hPa 0,0 mm 3,2 km/h (1 Bft) N 360 10 min 4 UV-I 536 W/m 9,7 km/h (2 Bft)
14.06.2010 14:50 20,6 C 52 % 1015,2 hPa 0,0 mm 1,6 km/h (1 Bft) N 360 10 min 6 UV-I 995 W/m 6,4 km/h (2 Bft)
14.06.2010 15:00 22,2 C 47 % 1015,2 hPa 0,0 mm 1,6 km/h (1 Bft) O-NO 67 10 min 6 UV-I 1046 W/m 8,0 km/h (2 Bft)
14.06.2010 15:10 23,3 C 43 % 1015,0 hPa 0,0 mm 3,2 km/h (1 Bft) O 90 10 min 6 UV-I 1056 W/m 9,7 km/h (2 Bft)
14.06.2010 15:20 21,9 C 45 % 1015,0 hPa 0,0 mm 1,6 km/h (1 Bft) N-NO 22 10 min 6 UV-I 1005 W/m 8,0 km/h (2 Bft)
14.06.2010 15:30 22,1 C 43 % 1015,1 hPa 0,0 mm 1,6 km/h (1 Bft) O 90 10 min 6 UV-I 942 W/m 6,4 km/h (2 Bft)
14.06.2010 15:40 22,7 C 44 % 1015,2 hPa 0,0 mm 3,2 km/h (1 Bft) O-SO 112 10 min 6 UV-I 926 W/m 8,0 km/h (2 Bft)
14.06.2010 15:50 23,1 C 48 % 1015,3 hPa 0,0 mm 3,2 km/h (1 Bft) O-SO 112 10 min 5 UV-I 882 W/m 11,3 km/h (2 Bft)
14.06.2010 16:00 21,9 C 47 % 1015,3 hPa 0,0 mm 2,4 km/h (1 Bft) O 89 0 min 3 UV-I 226 W/m 4,8 km/h (1 Bft)
14.06.2010 16:10 22,4 C 42 % 1015,5 hPa 0,0 mm 1,6 km/h (1 Bft) O 90 10 min 5 UV-I 907 W/m 6,4 km/h (2 Bft)
14.06.2010 16:20 22,4 C 43 % 1015,6 hPa 0,0 mm 1,6 km/h (1 Bft) N 360 10 min 5 UV-I 905 W/m 8,0 km/h (2 Bft)
14.06.2010 16:30 21,6 C 45 % 1015,7 hPa 0,0 mm 3,2 km/h (1 Bft) O-NO 67 0 min 4 UV-I 301 W/m 14,5 km/h (3 Bft)
14.06.2010 16:40 22,5 C 41 % 1015,7 hPa 0,0 mm 3,2 km/h (1 Bft) O 90 10 min 4 UV-I 798 W/m 9,7 km/h (2 Bft)
14.06.2010 16:50 22,7 C 45 % 1015,9 hPa 0,0 mm 1,6 km/h (1 Bft) N 360 10 min 4 UV-I 735 W/m 9,7 km/h (2 Bft)
14.06.2010 17:00 22,1 C 47 % 1015,9 hPa 0,0 mm 1,6 km/h (1 Bft) O-NO 67 0 min 2 UV-I 346 W/m 9,7 km/h (2 Bft)
14.06.2010 17:10 22,0 C 44 % 1016,0 hPa 0,0 mm 1,6 km/h (1 Bft) N-NO 22 10 min 3 UV-I 686 W/m 9,7 km/h (2 Bft)
14.06.2010 17:20 22,8 C 45 % 1016,2 hPa 0,0 mm 4,8 km/h (1 Bft) N 360 10 min 3 UV-I 707 W/m 12,9 km/h (3 Bft)
14.06.2010 17:30 22,6 C 45 % 1016,3 hPa 0,0 mm 3,2 km/h (1 Bft) N-NO 22 10 min 2 UV-I 605 W/m 8,0 km/h (2 Bft)
14.06.2010 17:40 22,3 C 47 % 1016,4 hPa 0,0 mm 1,6 km/h (1 Bft) NO 45 0 min 2 UV-I 269 W/m 8,0 km/h (2 Bft)
14.06.2010 17:50 22,4 C 44 % 1016,4 hPa 0,0 mm 3,2 km/h (1 Bft) O 90 10 min 2 UV-I 594 W/m 9,7 km/h (2 Bft)
14.06.2010 18:00 23,2 C 44 % 1016,5 hPa 0,0 mm 4,8 km/h (1 Bft) NO 45 10 min 2 UV-I 631 W/m 11,3 km/h (2 Bft)
14.06.2010 18:10 22,6 C 43 % 1016,6 hPa 0,0 mm 3,7 km/h (1 Bft) NO 37 10 min 2 UV-I 393 W/m 9,7 km/h (2 Bft)
14.06.2010 18:20 23,1 C 46 % 1016,8 hPa 0,0 mm 3,4 km/h (1 Bft) O-SO 115 10 min 2 UV-I 462 W/m 11,3 km/h (2 Bft)
14.06.2010 18:30 22,8 C 44 % 1016,9 hPa 0,0 mm 2,7 km/h (1 Bft) O-NO 67 10 min 1 UV-I 408 W/m 11,3 km/h (2 Bft)
14.06.2010 18:40 22,4 C 46 % 1016,9 hPa 0,0 mm 2,6 km/h (1 Bft) O-NO 64 10 min 1 UV-I 333 W/m 8,0 km/h (2 Bft)
14.06.2010 18:50 22,7 C 45 % 1017,0 hPa 0,0 mm 2,3 km/h (1 Bft) O-NO 71 10 min 1 UV-I 370 W/m 8,0 km/h (2 Bft)
14.06.2010 19:00 22,1 C 44 % 1017,0 hPa 0,0 mm 3,4 km/h (1 Bft) N 355 10 min 1 UV-I 282 W/m 14,5 km/h (3 Bft)
14.06.2010 19:10 21,7 C 46 % 1017,0 hPa 0,0 mm 3,7 km/h (1 Bft) N-NO 25 10 min 1 UV-I 257 W/m 12,9 km/h (3 Bft)
14.06.2010 19:20 21,7 C 49 % 1017,3 hPa 0,0 mm 3,2 km/h (1 Bft) O 86 10 min 1 UV-I 284 W/m 9,7 km/h (2 Bft)
14.06.2010 19:30 21,8 C 48 % 1017,3 hPa 0,0 mm 3,2 km/h (1 Bft) N 355 10 min 1 UV-I 266 W/m 14,5 km/h (3 Bft)
14.06.2010 19:40 21,6 C 46 % 1017,5 hPa 0,0 mm 3,5 km/h (1 Bft) N 360 10 min 1 UV-I 218 W/m 14,5 km/h (3 Bft)
14.06.2010 19:50 20,9 C 48 % 1017,5 hPa 0,0 mm 4,5 km/h (1 Bft) NO 44 10 min 1 UV-I 162 W/m 14,5 km/h (3 Bft)
14.06.2010 20:00 20,7 C 49 % 1017,7 hPa 0,0 mm 4,8 km/h (1 Bft) N-NO 22 10 min 1 UV-I 144 W/m 16,1 km/h (3 Bft)
14.06.2010 20:10 20,2 C 50 % 1017,8 hPa 0,0 mm 3,2 km/h (1 Bft) N-NO 22 10 min 1 UV-I 120 W/m 12,9 km/h (3 Bft)
14.06.2010 20:20 19,8 C 52 % 1017,9 hPa 0,0 mm 3,2 km/h (1 Bft) N-NO 22 10 min 0 UV-I 102 W/m 14,5 km/h (3 Bft)
14.06.2010 20:30 19,4 C 54 % 1018,0 hPa 0,0 mm 1,6 km/h (1 Bft) N-NO 22 0 min 0 UV-I 60 W/m 11,3 km/h (2 Bft)
14.06.2010 20:40 19,1 C 55 % 1018,2 hPa 0,0 mm 3,2 km/h (1 Bft) NO 45 0 min 0 UV-I 51 W/m 11,3 km/h (2 Bft)
14.06.2010 20:50 18,7 C 56 % 1018,3 hPa 0,0 mm 1,6 km/h (1 Bft) N-NO 22 0 min 0 UV-I 40 W/m 6,4 km/h (2 Bft)
14.06.2010 21:00 18,4 C 57 % 1014,9 hPa 0,0 mm 0,0 km/h (0 Bft) NO 45 0 min 0 UV-I 33 W/m 4,8 km/h (1 Bft)
14.06.2010 21:10 18,1 C 58 % 1015,0 hPa 0,0 mm 1,6 km/h (1 Bft) NO 45 0 min 0 UV-I 26 W/m 8,0 km/h (2 Bft)
14.06.2010 21:20 17,8 C 60 % 1015,2 hPa 0,0 mm 1,6 km/h (1 Bft) N 360 0 min 0 UV-I 19 W/m 8,0 km/h (2 Bft)
14.06.2010 21:30 17,5 C 61 % 1015,3 hPa 0,0 mm 0,0 km/h (0 Bft) NO 45 10 min 0 UV-I 14 W/m 3,2 km/h (1 Bft)
14.06.2010 21:40 17,2 C 63 % 1015,5 hPa 0,0 mm 1,6 km/h (1 Bft) NO 45 0 min 0 UV-I 11 W/m 6,4 km/h (2 Bft)
14.06.2010 21:50 16,7 C 65 % 1015,7 hPa 0,0 mm 0,0 km/h (0 Bft) NO 45 0 min 0 UV-I 0 W/m 3,2 km/h (1 Bft)
14.06.2010 22:00 16,3 C 67 % 1015,8 hPa 0,0 mm 0,0 km/h (0 Bft) O-NO 67 0 min 0 UV-I 0 W/m 4,8 km/h (1 Bft)
14.06.2010 22:10 16,0 C 67 % 1015,9 hPa 0,0 mm 0,0 km/h (0 Bft) O-NO 67 0 min 0 UV-I 0 W/m 3,2 km/h (1 Bft)
14.06.2010 22:20 15,7 C 69 % 1016,0 hPa 0,0 mm 0,0 km/h (0 Bft) NO 45 0 min 0 UV-I 0 W/m 4,8 km/h (1 Bft)
14.06.2010 22:30 15,4 C 69 % 1016,1 hPa 0,0 mm 0,0 km/h (0 Bft) NO 45 0 min 0 UV-I 0 W/m 3,2 km/h (1 Bft)
14.06.2010 22:40 15,3 C 69 % 1016,2 hPa 0,0 mm 0,0 km/h (0 Bft) NO 45 0 min 0 UV-I 0 W/m 3,2 km/h (1 Bft)
14.06.2010 22:50 15,0 C 71 % 1016,2 hPa 0,0 mm 0,0 km/h (0 Bft) NO 45 0 min 0 UV-I 0 W/m 1,6 km/h (1 Bft)
14.06.2010 23:00 14,8 C 72 % 1016,3 hPa 0,0 mm 0,0 km/h (0 Bft) N 0 0 min 0 UV-I 0 W/m 0,0 km/h (0 Bft)
14.06.2010 23:10 14,5 C 73 % 1016,5 hPa 0,0 mm 0,0 km/h (0 Bft) N 0 0 min 0 UV-I 0 W/m 0,0 km/h (0 Bft)
14.06.2010 23:20 14,3 C 73 % 1016,5 hPa 0,0 mm 0,0 km/h (0 Bft) NO 45 0 min 0 UV-I 0 W/m 1,6 km/h (1 Bft)
14.06.2010 23:30 14,3 C 74 % 1016,6 hPa 0,0 mm 1,6 km/h (1 Bft) NO 45 0 min 0 UV-I 0 W/m 6,4 km/h (2 Bft)
14.06.2010 23:40 14,3 C 75 % 1016,9 hPa 0,0 mm 0,0 km/h (0 Bft) N-NO 22 0 min 0 UV-I 0 W/m 6,4 km/h (2 Bft)
14.06.2010 23:50 14,3 C 75 % 1017,1 hPa 0,0 mm 0,0 km/h (0 Bft) N-NO 22 0 min 0 UV-I 0 W/m 6,4 km/h (2 Bft)
_ Min-Zeit 05:10 16:40 00:00 - 00:00 - - - - - 00:30
Minimum _ 8,0 C 41 % 1011,3 hPa - 0,0 km/h (0 Bft) - - - - - 0,0 km/h (0 Bft)
_ Max-Zeit 15:10 05:20 20:50 00:00 10:40 - - 08:30 13:30 13:30 20:00
Maximum _ 23,6 C 90 % 1018,3 hPa 0,0 mm 6,4 km/h
O (2 Bft)
- - 10 min 7 UV-I 1067 W/m 16,1 km/h
O-NO (3 Bft)
Durchschnitt _ 16,1 C 66 % 1014,7 hPa #0,0 mm 1,7 km/h (1 Bft) O - #11:30 h 4 UV-I 513 W/m 6,6 km/h (2 Bft)